Terminal Aerodrome Forecast
Issued by NWS

Home | Current Version | Previous Version | Graphics & Text | Print | Product List | Glossary On
Versions: 1 2 3 4 5 6 7 8 9 10 11 12 13 14 15 16 17 18 19 20 21 22 23 24 25 26 27 28 29 30 31 32 33 34 35 36 37 38 39 40 41 42 43 44 45 46 47 48 49 50
000
FTUS43 KGRB 270810 AAA
TAFRHI
TAF AMD
KRHI 270810Z 2708/2806 VRB03KT 2SM BR SCT005 BKN250
      TEMPO 2708/2712 1/4SM FG VV002
     FM271400 12006KT P6SM SCT025 BKN040
     FM271700 14006KT P6SM SCT020 BKN050
      TEMPO 2721/2801 3SM TSRA BKN020CB
     FM280100 13004KT 3SM -SHRA BR SCT009 BKN020
      TEMPO 2802/2806 2SM -SHRA BR BKN009=

USA.gov is the U.S. government's official web portal to all federal, state and local government web resources and services.